Time;durP1;ratioP1;P1;durP2;ratioP2;P2;SDS_P1;SDS_P2;PMS_P1;PMS_P2;Temp;Humidity;BMP_temperature;BMP_pressure;BME280_temperature;BME280_humidity;BME280_pressure;Samples;Min_cycle;Max_cycle;Signal;HPM_P1;HPM_P2
2023/10/14 00:00:27;;;;;;;5.62;4.05;;;;;;;;;;4346004;32;317514;-93
2023/10/14 00:03:05;;;;;;;8.77;4.25;;;;;;;;;;4333819;32;316553;-93
2023/10/14 00:05:35;;;;;;;11.90;5.10;;;;;;;;;;4332738;32;353736;-93
2023/10/14 00:08:03;;;;;;;12.88;5.15;;;;;;;;;;4364852;32;317496;-93
2023/10/14 00:10:38;;;;;;;7.55;4.18;;;;;;;;;;4345762;32;317626;-92
2023/10/14 00:13:10;;;;;;;29.10;5.00;;;;;;;;;;4359526;32;316350;-91
2023/10/14 00:15:39;;;;;;;8.75;3.83;;;;;;;;;;4327491;32;389759;-93
2023/10/14 00:18:08;;;;;;;11.30;3.78;;;;;;;;;;4360489;32;316667;-92
2023/10/14 00:20:38;;;;;;;12.80;4.10;;;;;;;;;;4366372;32;317408;-92
2023/10/14 00:23:11;;;;;;;5.07;3.70;;;;;;;;;;4382168;32;317622;-92
2023/10/14 00:25:51;;;;;;;7.10;4.45;;;;;;;;;;4342900;32;388563;-92
2023/10/14 00:28:19;;;;;;;6.07;3.87;;;;;;;;;;4347060;32;316544;-92
2023/10/14 00:30:49;;;;;;;9.77;3.95;;;;;;;;;;4364047;32;316488;-94
2023/10/14 00:33:20;;;;;;;14.98;4.32;;;;;;;;;;4377779;32;316601;-91
2023/10/14 00:35:53;;;;;;;9.43;4.07;;;;;;;;;;4384290;32;317430;-94
2023/10/14 00:38:34;;;;;;;7.28;3.55;;;;;;;;;;4350413;32;316293;-94
2023/10/14 00:41:08;;;;;;;12.75;4.87;;;;;;;;;;4379769;32;344516;-93
2023/10/14 00:43:36;;;;;;;10.30;4.55;;;;;;;;;;4335984;32;318313;-92
2023/10/14 00:46:13;;;;;;;7.07;4.00;;;;;;;;;;4368924;32;317499;-92
2023/10/14 00:49:04;;;;;;;9.90;5.18;;;;;;;;;;4373315;32;416303;-93
2023/10/14 00:51:33;;;;;;;7.32;4.68;;;;;;;;;;4372403;32;315125;-94
2023/10/14 00:54:03;;;;;;;10.40;4.55;;;;;;;;;;4386558;32;315005;-91
2023/10/14 00:56:40;;;;;;;9.38;5.03;;;;;;;;;;4350139;32;317329;-92
2023/10/14 00:59:14;;;;;;;10.98;4.05;;;;;;;;;;4372184;32;316144;-93
2023/10/14 01:01:55;;;;;;;8.57;4.93;;;;;;;;;;4364397;32;416708;-91
2023/10/14 01:04:31;;;;;;;8.90;4.40;;;;;;;;;;4329138;32;316433;-92
2023/10/14 01:07:04;;;;;;;13.23;5.43;;;;;;;;;;4388203;32;317020;-93
2023/10/14 01:09:52;;;;;;;12.68;5.35;;;;;;;;;;4366285;32;316248;-92
2023/10/14 01:12:26;;;;;;;10.70;5.30;;;;;;;;;;4368338;32;315533;-93
2023/10/14 01:14:54;;;;;;;11.40;5.25;;;;;;;;;;4386728;32;316189;-92
2023/10/14 01:17:29;;;;;;;12.15;5.28;;;;;;;;;;4346186;32;317425;-93
2023/10/14 01:20:18;;;;;;;9.05;4.28;;;;;;;;;;4359069;32;324516;-92
2023/10/14 01:23:06;;;;;;;13.23;4.85;;;;;;;;;;4353447;32;417229;-91
2023/10/14 01:25:41;;;;;;;7.43;4.40;;;;;;;;;;4349184;32;322464;-92
2023/10/14 01:28:15;;;;;;;10.63;4.90;;;;;;;;;;4363977;32;316518;-94
2023/10/14 01:31:06;;;;;;;7.87;4.95;;;;;;;;;;4374046;32;421258;-93
2023/10/14 01:33:36;;;;;;;15.02;5.12;;;;;;;;;;4354829;32;315428;-94
2023/10/14 01:36:03;;;;;;;7.47;3.50;;;;;;;;;;4387636;32;317578;-88
2023/10/14 01:38:35;;;;;;;8.00;4.50;;;;;;;;;;4390610;32;316323;-89
2023/10/14 01:41:04;;;;;;;8.93;3.72;;;;;;;;;;4401547;32;315020;-92
2023/10/14 01:43:32;;;;;;;5.05;3.30;;;;;;;;;;4365446;32;315596;-93
2023/10/14 01:46:08;;;;;;;6.07;3.60;;;;;;;;;;4367162;32;314328;-91
2023/10/14 01:48:38;;;;;;;9.25;4.07;;;;;;;;;;4373479;32;315022;-92
2023/10/14 01:51:06;;;;;;;12.77;3.92;;;;;;;;;;4375928;32;316302;-91
2023/10/14 01:53:36;;;;;;;9.45;4.28;;;;;;;;;;4353166;32;316028;-91
2023/10/14 01:56:07;;;;;;;7.30;3.67;;;;;;;;;;4375011;32;318543;-91
2023/10/14 01:58:36;;;;;;;9.52;3.70;;;;;;;;;;4384060;32;316408;-92
2023/10/14 02:01:11;;;;;;;9.75;4.07;;;;;;;;;;4386168;32;314342;-91
2023/10/14 02:03:43;;;;;;;9.27;3.67;;;;;;;;;;4349934;32;419096;-92
2023/10/14 02:06:16;;;;;;;8.18;4.43;;;;;;;;;;4375057;32;314311;-92
2023/10/14 02:08:52;;;;;;;9.63;4.70;;;;;;;;;;4371028;32;415436;-92
2023/10/14 02:11:21;;;;;;;7.97;4.53;;;;;;;;;;4369542;32;316246;-93
2023/10/14 02:13:53;;;;;;;8.38;4.20;;;;;;;;;;4356358;32;316470;-93
2023/10/14 02:16:25;;;;;;;7.50;4.95;;;;;;;;;;4379769;32;316530;-91
2023/10/14 02:19:17;;;;;;;9.88;4.95;;;;;;;;;;4371666;32;316012;-92
2023/10/14 02:21:59;;;;;;;9.80;4.22;;;;;;;;;;4311846;32;419649;-93
2023/10/14 02:24:29;;;;;;;13.73;4.50;;;;;;;;;;4322663;32;316309;-94
2023/10/14 02:27:06;;;;;;;15.83;4.80;;;;;;;;;;4366236;32;317400;-94
2023/10/14 02:29:41;;;;;;;8.45;4.93;;;;;;;;;;4358211;32;331668;-93
2023/10/14 02:32:13;;;;;;;19.27;5.18;;;;;;;;;;4362847;32;316416;-92
2023/10/14 02:34:45;;;;;;;11.20;4.93;;;;;;;;;;4339772;32;389624;-92
2023/10/14 02:37:15;;;;;;;11.90;5.65;;;;;;;;;;4368331;32;317716;-93
2023/10/14 02:39:44;;;;;;;12.25;4.15;;;;;;;;;;4364007;32;317365;-93
2023/10/14 02:42:14;;;;;;;13.93;6.10;;;;;;;;;;4342947;32;317342;-94
2023/10/14 02:44:46;;;;;;;14.23;6.03;;;;;;;;;;4354321;32;420106;-93
2023/10/14 02:47:17;;;;;;;14.73;5.40;;;;;;;;;;4360343;32;327332;-93
2023/10/14 02:49:46;;;;;;;9.07;4.53;;;;;;;;;;4363787;32;317651;-91
2023/10/14 02:52:28;;;;;;;6.43;4.20;;;;;;;;;;4349081;32;315595;-92
2023/10/14 02:55:27;;;;;;;13.45;4.72;;;;;;;;;;4348029;32;353631;-93
2023/10/14 02:58:06;;;;;;;11.93;5.37;;;;;;;;;;4352651;32;388538;-94
2023/10/14 03:00:33;;;;;;;12.05;4.53;;;;;;;;;;4367261;32;318103;-94
2023/10/14 03:03:12;;;;;;;16.87;4.45;;;;;;;;;;4368048;32;318751;-93
2023/10/14 03:05:50;;;;;;;8.77;4.25;;;;;;;;;;4339879;32;346303;-94
2023/10/14 03:08:18;;;;;;;12.50;5.47;;;;;;;;;;4342104;32;316409;-94
2023/10/14 03:10:59;;;;;;;12.98;4.90;;;;;;;;;;4351055;32;317515;-93
2023/10/14 03:13:29;;;;;;;8.88;4.47;;;;;;;;;;4360838;32;317646;-94
2023/10/14 03:16:04;;;;;;;13.10;6.50;;;;;;;;;;4369390;32;316629;-94
2023/10/14 03:18:44;;;;;;;10.82;4.72;;;;;;;;;;4346214;32;340316;-94
2023/10/14 03:21:30;;;;;;;11.65;4.07;;;;;;;;;;4371757;32;317426;-94
2023/10/14 03:24:03;;;;;;;10.95;4.75;;;;;;;;;;4367958;32;416566;-95
2023/10/14 03:26:40;;;;;;;6.80;4.33;;;;;;;;;;4380530;32;316404;-89
2023/10/14 03:29:16;;;;;;;9.20;5.15;;;;;;;;;;4353020;32;315270;-92
2023/10/14 03:31:50;;;;;;;10.32;4.68;;;;;;;;;;4372234;32;315170;-89
2023/10/14 03:34:19;;;;;;;14.85;4.40;;;;;;;;;;4381331;32;317272;-91
2023/10/14 03:37:18;;;;;;;9.45;5.37;;;;;;;;;;4394555;32;317791;-92
2023/10/14 03:40:34;;;;;;;8.95;4.35;;;;;;;;;;4359053;32;417168;-94
2023/10/14 03:43:08;;;;;;;8.07;4.62;;;;;;;;;;4359842;32;349388;-92
2023/10/14 03:45:48;;;;;;;9.10;4.30;;;;;;;;;;4356352;32;316343;-94
2023/10/14 03:48:30;;;;;;;14.80;5.72;;;;;;;;;;4322931;32;316594;-93
2023/10/14 03:51:02;;;;;;;11.18;4.65;;;;;;;;;;4365176;32;316438;-94
2023/10/14 03:53:33;;;;;;;13.30;5.05;;;;;;;;;;4357117;32;317592;-92
2023/10/14 03:58:55;;;;;;;8.77;5.65;;;;;;;;;;4344786;32;389307;-92
2023/10/14 04:01:34;;;;;;;14.10;6.97;;;;;;;;;;4349289;32;316498;-92
2023/10/14 04:07:13;;;;;;;16.08;8.38;;;;;;;;;;4322766;32;389976;-92
2023/10/14 04:09:51;;;;;;;44.77;17.73;;;;;;;;;;4325287;32;421553;-93
2023/10/14 04:12:32;;;;;;;38.80;17.37;;;;;;;;;;4351682;32;318496;-93
2023/10/14 04:15:33;;;;;;;24.63;11.12;;;;;;;;;;4335206;32;318307;-95
2023/10/14 04:17:58;;;;;;;25.57;10.30;;;;;;;;;;4310706;32;392070;-93
2023/10/14 04:20:35;;;;;;;15.77;7.28;;;;;;;;;;4370921;32;318343;-94
2023/10/14 04:23:10;;;;;;;28.10;9.10;;;;;;;;;;4358429;32;317461;-95
2023/10/14 04:25:42;;;;;;;24.57;9.17;;;;;;;;;;4353399;32;416048;-93
2023/10/14 04:28:30;;;;;;;20.92;8.73;;;;;;;;;;4359633;32;317593;-95
2023/10/14 04:31:06;;;;;;;12.83;6.90;;;;;;;;;;4345187;32;419037;-93
2023/10/14 04:33:44;;;;;;;12.20;7.63;;;;;;;;;;4356572;32;317459;-93
2023/10/14 04:39:15;;;;;;;15.82;7.82;;;;;;;;;;4351508;32;388811;-93
2023/10/14 04:44:45;;;;;;;17.90;6.70;;;;;;;;;;4282090;33;317687;-92
2023/10/14 04:47:27;;;;;;;15.40;8.23;;;;;;;;;;4384898;32;316368;-88
2023/10/14 04:50:14;;;;;;;16.20;8.20;;;;;;;;;;4340538;32;419005;-93
2023/10/14 04:53:07;;;;;;;17.57;7.77;;;;;;;;;;4330396;32;420195;-92
2023/10/14 04:55:45;;;;;;;19.65;8.18;;;;;;;;;;4356071;32;317483;-93
2023/10/14 04:58:23;;;;;;;24.43;12.67;;;;;;;;;;4381799;32;316318;-93
2023/10/14 05:01:00;;;;;;;38.70;16.43;;;;;;;;;;4354567;32;316145;-92
2023/10/14 05:03:38;;;;;;;29.37;18.20;;;;;;;;;;4353633;32;317027;-91
2023/10/14 05:06:15;;;;;;;26.33;19.27;;;;;;;;;;4346966;32;317225;-90
2023/10/14 05:09:09;;;;;;;28.17;17.70;;;;;;;;;;4338050;32;390498;-88
2023/10/14 05:11:37;;;;;;;33.90;21.23;;;;;;;;;;4349033;32;318148;-93
2023/10/14 05:14:14;;;;;;;60.50;35.47;;;;;;;;;;4368937;32;317446;-88
2023/10/14 05:16:53;;;;;;;51.07;30.43;;;;;;;;;;4372922;32;419516;-92
2023/10/14 05:19:41;;;;;;;55.10;27.63;;;;;;;;;;4364814;32;317481;-93
2023/10/14 05:22:18;;;;;;;33.43;18.20;;;;;;;;;;4382975;32;317104;-93
2023/10/14 05:25:04;;;;;;;26.90;13.43;;;;;;;;;;4372290;32;416982;-92
2023/10/14 05:30:32;;;;;;;22.33;11.13;;;;;;;;;;4368727;32;317351;-92
2023/10/14 05:33:15;;;;;;;26.10;9.30;;;;;;;;;;4370841;32;318726;-93
2023/10/14 05:36:15;;;;;;;27.30;10.40;;;;;;;;;;4306094;32;420858;-94
2023/10/14 05:42:25;;;;;;;23.30;11.33;;;;;;;;;;4302784;32;317371;-94
2023/10/14 05:45:04;;;;;;;33.03;16.50;;;;;;;;;;4305851;32;391384;-92
2023/10/14 05:47:33;;;;;;;38.47;18.63;;;;;;;;;;4338419;32;318557;-93
2023/10/14 05:50:06;;;;;;;46.77;16.40;;;;;;;;;;4366758;32;318908;-94
2023/10/14 05:52:43;;;;;;;35.50;14.97;;;;;;;;;;4325842;32;318959;-93
2023/10/14 05:55:19;;;;;;;30.40;13.57;;;;;;;;;;4365313;32;318441;-94
2023/10/14 05:57:50;;;;;;;30.47;14.00;;;;;;;;;;4347124;32;391520;-93
2023/10/14 06:00:27;;;;;;;28.43;12.53;;;;;;;;;;4355233;32;318462;-94
2023/10/14 06:03:11;;;;;;;21.77;10.03;;;;;;;;;;4373721;32;318809;-94
2023/10/14 06:05:43;;;;;;;28.40;10.00;;;;;;;;;;4344848;32;417365;-94
2023/10/14 06:08:18;;;;;;;14.57;6.23;;;;;;;;;;4355534;32;325814;-94
2023/10/14 06:10:48;;;;;;;14.23;8.07;;;;;;;;;;4346711;32;421540;-92
2023/10/14 06:13:30;;;;;;;16.50;7.57;;;;;;;;;;4366605;32;318172;-93
2023/10/14 06:16:00;;;;;;;15.90;6.27;;;;;;;;;;4377648;32;317352;-92
2023/10/14 06:18:31;;;;;;;22.33;8.00;;;;;;;;;;4363704;32;317304;-93
2023/10/14 06:21:06;;;;;;;20.23;8.33;;;;;;;;;;4380492;32;343662;-93
2023/10/14 06:23:39;;;;;;;16.42;8.27;;;;;;;;;;4361786;32;316429;-93
2023/10/14 06:26:11;;;;;;;23.70;9.50;;;;;;;;;;4354786;32;317307;-94
2023/10/14 06:28:55;;;;;;;16.10;9.55;;;;;;;;;;4363831;32;415683;-94
2023/10/14 06:31:23;;;;;;;13.97;8.00;;;;;;;;;;4364408;32;317608;-92
2023/10/14 06:33:54;;;;;;;12.07;7.57;;;;;;;;;;4377129;32;317512;-94
2023/10/14 06:36:28;;;;;;;15.30;7.57;;;;;;;;;;4341843;32;317319;-93
2023/10/14 06:39:14;;;;;;;18.13;8.13;;;;;;;;;;4379722;32;317483;-93
2023/10/14 06:41:43;;;;;;;17.60;7.55;;;;;;;;;;4339509;32;412028;-93
2023/10/14 06:44:14;;;;;;;21.77;7.93;;;;;;;;;;4370206;32;317534;-94
2023/10/14 06:46:48;;;;;;;18.52;8.52;;;;;;;;;;4369577;32;417853;-93
2023/10/14 06:49:30;;;;;;;;;;;;;;;;;;;;;
2023/10/14 06:52:07;;;;;;;18.87;8.70;;;;;;;;;;4382967;32;317644;-92
2023/10/14 06:54:43;;;;;;;25.57;9.63;;;;;;;;;;4365471;32;316819;-91
2023/10/14 06:57:16;;;;;;;11.60;7.95;;;;;;;;;;4381372;32;316349;-93
2023/10/14 06:59:55;;;;;;;25.00;9.55;;;;;;;;;;4356509;32;390422;-94
2023/10/14 07:05:23;;;;;;;24.27;9.32;;;;;;;;;;4357130;32;343299;-93
2023/10/14 07:08:03;;;;;;;15.80;8.98;;;;;;;;;;4354767;32;317714;-93
2023/10/14 07:10:39;;;;;;;20.65;8.65;;;;;;;;;;4373178;32;317401;-93
2023/10/14 07:13:13;;;;;;;21.33;7.07;;;;;;;;;;4392003;32;317163;-92
2023/10/14 07:15:58;;;;;;;30.00;8.18;;;;;;;;;;4366903;32;417012;-93
2023/10/14 07:18:25;;;;;;;16.45;7.32;;;;;;;;;;4379171;32;315987;-92
2023/10/14 07:21:02;;;;;;;18.85;8.35;;;;;;;;;;4387797;32;316475;-94
2023/10/14 07:23:36;;;;;;;17.10;8.00;;;;;;;;;;4384220;32;316223;-94
2023/10/14 07:26:29;;;;;;;14.23;7.90;;;;;;;;;;4379431;32;317383;-93
2023/10/14 07:29:01;;;;;;;9.18;6.15;;;;;;;;;;4338466;32;420836;-93
2023/10/14 07:31:36;;;;;;;16.73;6.72;;;;;;;;;;4357203;32;316330;-93
2023/10/14 07:34:12;;;;;;;13.10;6.65;;;;;;;;;;4356967;32;317431;-92
2023/10/14 07:36:39;;;;;;;10.63;5.28;;;;;;;;;;4327848;32;416199;-94
2023/10/14 07:39:27;;;;;;;13.45;5.85;;;;;;;;;;4363470;32;317511;-92
2023/10/14 07:42:09;;;;;;;24.17;5.72;;;;;;;;;;4305280;32;419772;-93
2023/10/14 07:44:39;;;;;;;16.25;5.35;;;;;;;;;;4366602;32;317536;-94
2023/10/14 07:47:13;;;;;;;15.35;5.28;;;;;;;;;;4341483;32;317803;-93
2023/10/14 07:49:59;;;;;;;20.83;6.28;;;;;;;;;;4336016;32;416935;-92
2023/10/14 07:55:26;;;;;;;8.52;5.25;;;;;;;;;;4375491;32;316453;-93
2023/10/14 07:58:23;;;;;;;16.50;6.37;;;;;;;;;;4361492;32;416743;-94
2023/10/14 08:00:53;;;;;;;12.77;5.95;;;;;;;;;;4359299;32;418737;-94
2023/10/14 08:03:36;;;;;;;22.00;7.15;;;;;;;;;;4348123;32;317448;-93
2023/10/14 08:06:11;;;;;;;13.73;6.72;;;;;;;;;;4357804;32;317543;-93
2023/10/14 08:08:47;;;;;;;15.45;7.87;;;;;;;;;;4338472;32;390636;-93
2023/10/14 08:11:36;;;;;;;16.67;7.57;;;;;;;;;;4361793;32;317529;-92
2023/10/14 08:14:09;;;;;;;14.23;7.65;;;;;;;;;;4369715;32;317437;-92
2023/10/14 08:16:38;;;;;;;24.58;8.88;;;;;;;;;;4346690;32;317489;-92
2023/10/14 08:19:10;;;;;;;30.00;10.07;;;;;;;;;;4364062;32;317623;-92
2023/10/14 08:28:04;;;;;;;24.80;10.27;;;;;;;;;;4294953;32;317598;-94
2023/10/14 08:30:46;;;;;;;24.90;9.80;;;;;;;;;;4345991;32;318476;-91
2023/10/14 08:33:19;;;;;;;28.58;9.50;;;;;;;;;;4348642;32;317573;-92
2023/10/14 08:35:49;;;;;;;20.60;9.30;;;;;;;;;;4371248;32;317949;-93
2023/10/14 08:38:22;;;;;;;26.98;8.95;;;;;;;;;;4369668;32;358137;-92
2023/10/14 08:40:53;;;;;;;13.93;8.50;;;;;;;;;;4368392;32;317512;-93
2023/10/14 08:46:10;;;;;;;20.08;7.75;;;;;;;;;;4384073;32;317714;-92
2023/10/14 08:48:51;;;;;;;18.55;7.07;;;;;;;;;;4332306;32;391747;-93
2023/10/14 08:51:38;;;;;;;16.37;6.45;;;;;;;;;;4372926;32;317331;-93
2023/10/14 08:54:23;;;;;;;16.35;6.47;;;;;;;;;;4347360;32;342131;-92
2023/10/14 08:56:54;;;;;;;11.63;6.30;;;;;;;;;;4338707;32;418069;-91
2023/10/14 08:59:27;;;;;;;14.73;5.37;;;;;;;;;;4373809;32;317463;-91
2023/10/14 09:02:17;;;;;;;10.27;5.97;;;;;;;;;;4376663;32;317636;-92
2023/10/14 09:04:55;;;;;;;17.87;5.78;;;;;;;;;;4337596;32;417623;-92
2023/10/14 09:07:31;;;;;;;11.23;5.57;;;;;;;;;;4371733;32;317562;-92
2023/10/14 09:10:03;;;;;;;13.57;4.70;;;;;;;;;;4347352;32;317602;-94
2023/10/14 09:12:42;;;;;;;13.57;5.00;;;;;;;;;;4329337;32;317563;-94
2023/10/14 09:15:21;;;;;;;13.82;4.45;;;;;;;;;;4384170;32;317422;-91
2023/10/14 09:17:51;;;;;;;13.85;4.65;;;;;;;;;;4370670;32;419191;-93
2023/10/14 09:20:34;;;;;;;16.80;4.62;;;;;;;;;;4356548;32;316254;-93
2023/10/14 09:23:19;;;;;;;19.12;5.00;;;;;;;;;;4384837;27;340459;-86
2023/10/14 09:25:49;;;;;;;12.85;5.70;;;;;;;;;;4382736;32;419720;-89
2023/10/14 09:28:20;;;;;;;8.50;4.62;;;;;;;;;;4387104;32;318050;-85
2023/10/14 09:30:49;;;;;;;13.88;5.45;;;;;;;;;;4399178;32;316987;-84
2023/10/14 09:33:20;;;;;;;13.32;5.45;;;;;;;;;;4382714;32;352179;-85
2023/10/14 09:35:49;;;;;;;12.95;4.85;;;;;;;;;;4397016;32;318104;-86
2023/10/14 09:38:22;;;;;;;16.80;5.82;;;;;;;;;;4387058;32;317987;-85
2023/10/14 09:40:54;;;;;;;7.35;3.80;;;;;;;;;;4398027;32;317751;-85
2023/10/14 09:43:24;;;;;;;11.52;4.53;;;;;;;;;;4387151;32;317130;-87
2023/10/14 09:45:55;;;;;;;10.82;3.75;;;;;;;;;;4394215;32;318417;-87
2023/10/14 09:48:26;;;;;;;8.32;4.25;;;;;;;;;;4386428;32;317928;-87
2023/10/14 09:50:56;;;;;;;13.13;4.20;;;;;;;;;;4397454;32;316818;-87
2023/10/14 09:53:28;;;;;;;9.02;4.22;;;;;;;;;;4386364;32;317931;-87
2023/10/14 09:55:57;;;;;;;8.15;3.92;;;;;;;;;;4397898;32;316979;-87
2023/10/14 09:58:26;;;;;;;10.93;4.18;;;;;;;;;;4387095;32;317007;-88
2023/10/14 10:00:53;;;;;;;6.78;4.37;;;;;;;;;;4398579;32;317845;-87
2023/10/14 10:03:24;;;;;;;13.18;4.15;;;;;;;;;;4387687;32;317085;-86
2023/10/14 10:06:07;;;;;;;12.23;4.37;;;;;;;;;;4397500;32;318196;-87
2023/10/14 10:09:08;;;;;;;8.10;4.00;;;;;;;;;;4387681;32;317876;-87
2023/10/14 10:11:38;;;;;;;14.52;5.00;;;;;;;;;;4381401;32;325358;-86
2023/10/14 10:14:12;;;;;;;20.20;6.37;;;;;;;;;;4397340;32;317887;-88
2023/10/14 10:16:43;;;;;;;13.10;5.35;;;;;;;;;;4382382;32;418052;-86
2023/10/14 10:19:12;;;;;;;12.70;3.95;;;;;;;;;;4399793;32;318064;-88
2023/10/14 10:21:43;;;;;;;8.60;3.85;;;;;;;;;;4380494;32;416702;-89
2023/10/14 10:24:20;;;;;;;19.95;5.80;;;;;;;;;;4398619;32;316793;-90
2023/10/14 10:27:11;;;;;;;14.93;4.82;;;;;;;;;;4385016;32;417218;-90
2023/10/14 10:29:49;;;;;;;16.33;4.95;;;;;;;;;;4384125;32;388130;-87
2023/10/14 10:32:20;;;;;;;12.60;4.85;;;;;;;;;;4390855;32;317821;-86
2023/10/14 10:35:16;;;;;;;13.20;5.37;;;;;;;;;;4399309;32;317905;-81
2023/10/14 10:37:48;;;;;;;10.27;4.70;;;;;;;;;;4383079;32;418092;-81
2023/10/14 10:40:22;;;;;;;8.90;4.45;;;;;;;;;;4389220;32;317986;-84
2023/10/14 10:42:54;;;;;;;10.48;4.90;;;;;;;;;;4399961;32;340108;-83
2023/10/14 10:45:23;;;;;;;11.45;4.35;;;;;;;;;;4388633;32;318108;-84
2023/10/14 10:47:56;;;;;;;11.77;5.10;;;;;;;;;;4397945;32;317942;-83
2023/10/14 10:50:26;;;;;;;17.23;6.25;;;;;;;;;;4389804;32;318116;-81
2023/10/14 10:53:27;;;;;;;15.00;6.18;;;;;;;;;;4399705;32;317914;-81
2023/10/14 10:55:56;;;;;;;17.62;4.97;;;;;;;;;;4385769;32;418216;-83
2023/10/14 10:58:23;;;;;;;10.63;4.10;;;;;;;;;;4388970;32;318254;-82
2023/10/14 11:00:52;;;;;;;15.40;5.05;;;;;;;;;;4397648;32;317843;-82
2023/10/14 11:03:19;;;;;;;10.50;4.68;;;;;;;;;;4389800;32;318807;-81
2023/10/14 11:05:48;;;;;;;9.88;4.62;;;;;;;;;;4396285;32;317802;-84
2023/10/14 11:08:17;;;;;;;12.13;4.62;;;;;;;;;;4389781;32;317209;-84
2023/10/14 11:10:48;;;;;;;13.52;5.10;;;;;;;;;;4398525;32;317886;-84
2023/10/14 11:13:16;;;;;;;11.93;4.62;;;;;;;;;;4388562;32;317958;-84
2023/10/14 11:15:47;;;;;;;11.52;3.85;;;;;;;;;;4396777;32;318257;-83
2023/10/14 11:18:15;;;;;;;6.68;4.90;;;;;;;;;;4382635;32;317963;-83
2023/10/14 11:20:44;;;;;;;7.60;3.72;;;;;;;;;;4398163;32;334304;-83
2023/10/14 11:23:13;;;;;;;16.92;4.40;;;;;;;;;;4399363;32;328217;-82
2023/10/14 11:25:42;;;;;;;13.68;5.28;;;;;;;;;;4381062;32;417214;-84
2023/10/14 11:28:14;;;;;;;11.02;4.60;;;;;;;;;;4398656;32;317901;-81
2023/10/14 11:30:43;;;;;;;9.35;4.72;;;;;;;;;;4384604;32;416949;-82
2023/10/14 11:33:12;;;;;;;13.43;5.05;;;;;;;;;;4397894;32;317280;-85
2023/10/14 11:35:40;;;;;;;12.13;4.40;;;;;;;;;;4380527;32;417342;-82
2023/10/14 11:38:12;;;;;;;13.30;5.55;;;;;;;;;;4399525;32;350972;-83
2023/10/14 11:40:47;;;;;;;11.20;4.82;;;;;;;;;;4397326;32;416221;-83
2023/10/14 11:43:16;;;;;;;11.30;5.15;;;;;;;;;;4400135;32;317513;-82
2023/10/14 11:45:44;;;;;;;9.32;4.82;;;;;;;;;;4409514;32;317942;-86
2023/10/14 11:48:22;;;;;;;14.27;6.25;;;;;;;;;;4412450;32;316380;-84
2023/10/14 11:50:53;;;;;;;10.82;5.37;;;;;;;;;;4393864;32;415931;-83
2023/10/14 11:53:28;;;;;;;8.43;4.50;;;;;;;;;;4383773;32;318132;-85
2023/10/14 11:56:05;;;;;;;6.72;4.55;;;;;;;;;;4398145;32;316851;-84
2023/10/14 11:58:35;;;;;;;11.18;4.05;;;;;;;;;;4386201;32;317174;-84
2023/10/14 12:01:04;;;;;;;10.82;4.80;;;;;;;;;;4398786;32;318072;-85
2023/10/14 12:03:32;;;;;;;10.52;4.87;;;;;;;;;;4384118;32;318027;-85
2023/10/14 12:06:01;;;;;;;9.70;4.10;;;;;;;;;;4398834;32;318225;-84
2023/10/14 12:08:29;;;;;;;10.45;5.50;;;;;;;;;;4389330;32;316690;-84
2023/10/14 12:10:57;;;;;;;9.45;4.68;;;;;;;;;;4399043;32;317937;-84
2023/10/14 12:13:27;;;;;;;8.05;4.75;;;;;;;;;;4386926;32;316886;-85
2023/10/14 12:15:54;;;;;;;10.60;5.30;;;;;;;;;;4395394;32;316959;-85
2023/10/14 12:18:22;;;;;;;17.37;5.10;;;;;;;;;;4384307;32;318185;-85
2023/10/14 12:20:50;;;;;;;11.20;4.07;;;;;;;;;;4386262;32;317837;-85
2023/10/14 12:23:19;;;;;;;13.18;4.43;;;;;;;;;;4387223;32;317941;-86
2023/10/14 12:25:47;;;;;;;10.38;4.25;;;;;;;;;;4394934;32;317727;-84
2023/10/14 12:28:18;;;;;;;10.73;4.53;;;;;;;;;;4386473;32;318202;-87
2023/10/14 12:30:47;;;;;;;7.25;4.55;;;;;;;;;;4398043;32;317841;-84
2023/10/14 12:33:20;;;;;;;15.95;4.85;;;;;;;;;;4383942;32;316968;-87
2023/10/14 12:35:51;;;;;;;9.05;4.03;;;;;;;;;;4395730;32;317846;-84
2023/10/14 12:38:20;;;;;;;17.45;4.47;;;;;;;;;;4387009;32;316846;-85
2023/10/14 12:40:48;;;;;;;8.55;3.67;;;;;;;;;;4399277;32;317973;-85
2023/10/14 12:43:18;;;;;;;9.25;4.32;;;;;;;;;;4387996;32;316885;-85
2023/10/14 12:45:51;;;;;;;6.85;3.83;;;;;;;;;;4393941;32;316844;-85
2023/10/14 12:48:24;;;;;;;12.02;3.25;;;;;;;;;;4387567;32;316852;-84
2023/10/14 12:50:51;;;;;;;9.40;3.70;;;;;;;;;;4397419;32;317938;-86
2023/10/14 12:53:19;;;;;;;11.07;4.57;;;;;;;;;;4385062;32;342816;-84
2023/10/14 12:55:46;;;;;;;11.93;5.25;;;;;;;;;;4393979;32;317712;-83
2023/10/14 12:58:15;;;;;;;12.77;3.42;;;;;;;;;;4383749;32;333919;-85
2023/10/14 13:00:43;;;;;;;9.77;3.72;;;;;;;;;;4395714;32;335597;-84
2023/10/14 13:03:12;;;;;;;13.05;4.75;;;;;;;;;;4397961;32;316852;-84
2023/10/14 13:05:45;;;;;;;11.18;4.18;;;;;;;;;;4379593;32;416687;-85
2023/10/14 13:08:18;;;;;;;9.45;4.18;;;;;;;;;;4388127;32;317672;-86
2023/10/14 13:10:46;;;;;;;5.22;3.33;;;;;;;;;;4398469;32;316863;-85
2023/10/14 13:13:15;;;;;;;14.90;4.85;;;;;;;;;;4385504;32;331686;-85
2023/10/14 13:15:42;;;;;;;9.32;3.65;;;;;;;;;;4394215;32;317652;-85
2023/10/14 13:18:12;;;;;;;8.65;4.32;;;;;;;;;;4396598;32;316862;-85
2023/10/14 13:20:43;;;;;;;11.98;4.35;;;;;;;;;;4384786;32;419525;-84
2023/10/14 13:23:12;;;;;;;8.27;3.75;;;;;;;;;;4397453;32;317567;-85
2023/10/14 13:25:40;;;;;;;10.57;3.95;;;;;;;;;;4380117;32;416524;-85
2023/10/14 13:28:09;;;;;;;9.90;4.25;;;;;;;;;;4398285;32;318104;-85
2023/10/14 13:30:37;;;;;;;7.03;3.47;;;;;;;;;;4386501;32;345548;-85
2023/10/14 13:33:05;;;;;;;9.35;3.70;;;;;;;;;;4397473;32;316866;-85
2023/10/14 13:35:33;;;;;;;6.55;4.10;;;;;;;;;;4384433;32;316786;-85
2023/10/14 13:38:03;;;;;;;11.88;3.97;;;;;;;;;;4397177;32;316730;-85
2023/10/14 13:40:32;;;;;;;7.85;3.50;;;;;;;;;;4385476;32;317912;-84
2023/10/14 13:43:01;;;;;;;8.65;3.20;;;;;;;;;;4395332;32;316867;-85
2023/10/14 13:45:28;;;;;;;9.52;3.85;;;;;;;;;;4385221;32;316905;-85
2023/10/14 13:48:05;;;;;;;8.70;3.85;;;;;;;;;;4395117;32;316795;-85
2023/10/14 13:50:37;;;;;;;8.25;4.62;;;;;;;;;;4385721;32;316818;-85
2023/10/14 13:53:09;;;;;;;6.00;3.55;;;;;;;;;;4396649;32;316589;-84
2023/10/14 13:55:38;;;;;;;6.40;3.78;;;;;;;;;;4382662;32;316810;-85
2023/10/14 13:58:11;;;;;;;10.70;4.18;;;;;;;;;;4397846;32;316877;-85
2023/10/14 14:00:40;;;;;;;10.30;4.60;;;;;;;;;;4363955;32;417108;-85
2023/10/14 14:03:10;;;;;;;15.15;5.22;;;;;;;;;;4397674;32;317848;-85
2023/10/14 14:05:38;;;;;;;9.45;4.87;;;;;;;;;;4383063;32;321271;-85
2023/10/14 14:08:08;;;;;;;10.93;5.00;;;;;;;;;;4397655;32;316714;-85
2023/10/14 14:10:41;;;;;;;11.90;4.72;;;;;;;;;;4386541;32;317896;-84
2023/10/14 14:13:09;;;;;;;10.32;4.97;;;;;;;;;;4397753;32;317991;-85
2023/10/14 14:15:37;;;;;;;15.27;4.65;;;;;;;;;;4383220;32;317906;-85
2023/10/14 14:18:06;;;;;;;9.68;4.62;;;;;;;;;;4402564;32;317921;-84
2023/10/14 14:20:35;;;;;;;10.00;4.95;;;;;;;;;;4391668;32;330461;-85
2023/10/14 14:23:03;;;;;;;8.75;5.00;;;;;;;;;;4396864;32;338455;-84
2023/10/14 14:25:36;;;;;;;12.50;4.80;;;;;;;;;;4381552;32;317461;-84
2023/10/14 14:28:05;;;;;;;15.93;5.75;;;;;;;;;;4396827;32;317833;-84
2023/10/14 14:30:37;;;;;;;8.45;5.43;;;;;;;;;;4388533;32;317766;-85
2023/10/14 14:33:07;;;;;;;9.90;5.43;;;;;;;;;;4391508;32;316832;-84
2023/10/14 14:35:38;;;;;;;13.23;5.85;;;;;;;;;;4388137;32;317072;-86
2023/10/14 14:38:08;;;;;;;10.93;5.47;;;;;;;;;;4395499;32;317893;-83
2023/10/14 14:40:40;;;;;;;6.47;4.20;;;;;;;;;;4386707;32;318009;-84
2023/10/14 14:43:09;;;;;;;7.57;4.10;;;;;;;;;;4397664;32;316898;-84
2023/10/14 14:45:37;;;;;;;9.27;5.00;;;;;;;;;;4380702;32;333628;-85
2023/10/14 14:48:05;;;;;;;10.23;5.18;;;;;;;;;;4397356;32;316938;-86
2023/10/14 14:50:34;;;;;;;13.13;4.90;;;;;;;;;;4386578;32;317767;-86
2023/10/14 14:53:03;;;;;;;14.25;5.72;;;;;;;;;;4397764;32;317886;-83
2023/10/14 14:55:31;;;;;;;13.88;5.43;;;;;;;;;;4382875;32;317907;-83
2023/10/14 14:58:00;;;;;;;7.93;5.30;;;;;;;;;;4397291;32;317804;-85
2023/10/14 15:00:29;;;;;;;12.52;4.18;;;;;;;;;;4386335;32;316730;-85
2023/10/14 15:02:57;;;;;;;10.30;4.85;;;;;;;;;;4397297;32;318019;-85
2023/10/14 15:05:25;;;;;;;9.90;5.05;;;;;;;;;;4387634;32;317603;-85
2023/10/14 15:07:53;;;;;;;14.00;5.43;;;;;;;;;;4391902;32;316860;-85
2023/10/14 15:10:21;;;;;;;7.80;5.03;;;;;;;;;;4394556;32;317656;-86
2023/10/14 15:12:49;;;;;;;10.30;4.68;;;;;;;;;;4406383;32;316215;-85
2023/10/14 15:15:19;;;;;;;16.55;5.45;;;;;;;;;;4393609;32;318022;-85
2023/10/14 15:17:48;;;;;;;9.65;5.25;;;;;;;;;;4404812;32;317652;-85
2023/10/14 15:20:17;;;;;;;19.10;6.03;;;;;;;;;;4392714;32;316873;-85
2023/10/14 15:22:46;;;;;;;8.60;5.37;;;;;;;;;;4397648;32;318290;-85
2023/10/14 15:25:14;;;;;;;20.45;6.10;;;;;;;;;;4387906;32;316815;-84
2023/10/14 15:27:42;;;;;;;13.50;6.60;;;;;;;;;;4396861;32;317689;-83
2023/10/14 15:30:13;;;;;;;21.87;6.95;;;;;;;;;;4399005;32;318002;-83
2023/10/14 15:32:43;;;;;;;14.45;6.28;;;;;;;;;;4386057;32;417929;-83